Airfield :
LOGIN :

Register | Disclaimer

   EN    FR    IT 

 










Legend :    VFR   Marginal VFR   IFR   Intensive IFR   Very Intensive IFR
Visi :
Ceiling :
>= 8 km
>= 3000ft
5 to 8 km
1000 to 3000 ft
1500m to 5 km
500 to 1000 ft
800 to 1500m
200 to 500 ft
< 800m
< 200 ft
Symbols :   Thunderstorms  Fog  Heavy snow  Heavy precipitations  Wind > 20 kt
SIGMETs :     Misc.  Thunderstorms  Icing  Turbulence  Mountain Waves  Volcanic Ashes






- Airport Elevation : 299 ft
- IATA code : EDM


LFRI - La Roche Sur Yon - Les Ajoncs

CURRENT METAR :
  • 201830Z AUTO 31006KT 9999 -RA FEW010/// BKN072/// OVC082/// ///TCU 11/10 Q1010 TEMPO 4000 RA BKN011 SCT020CB

EXPIRED METARs :
  • 201800Z AUTO 31003KT 9999 -RA FEW014/// SCT024/// BKN064/// ///TCU 12/11 Q1009 TEMPO 4000 RA BKN011 SCT020CB
  • 201730Z AUTO 31004KT 9999 SCT022/// BKN032/// OVC042/// ///CB 12/11 Q1009 TEMPO 4000 RA BKN011 SCT020CB
  • 201700Z AUTO 34005KT 9999 SCT021/// BKN056/// BKN072/// ///TCU 12/11 Q1009 TEMPO 3000 RA BKN004 SCT020CB
  • 201630Z AUTO 36006KT CAVOK 12/11 Q1008 TEMPO 3000 RA BKN004 SCT020CB
  • 201600Z AUTO 33006KT 9999 -RA NSC 12/11 Q1008 TEMPO 3000 RA BKN004 SCT020CB

TAF TAF LFRI
Valid from the 20 at 18:00 until the 21 at 18:00 UTC


201700Z 2018/2118 36006KT 9999 SCT020 BKN040
TEMPO 2018/2102 4000 RA BKN011 SCT020CB
PROB40
TEMPO 2103/2109 4000 BR



MET'MAP, your aeronautical weather chart ! - Copyright ORBIFLY December 2007 - Disclaimer

ORBIFLY MET'MAP TEAM :

Programming & Development : Alexandra Zaïnal
Concept & Development : Baudouin d'Aumeries
Co-Development & Prog : Marc-Olivier Méhu
Technical & hardware support : Manuel Goepfert

Contact : metmap@orbifly.com




SOURCES & CREDITS :

   NOAA